createdAt,value
2019-03-04T00:02:25.847Z,7.95
2019-03-04T00:04:55.448Z,7.91
2019-03-04T00:07:25.103Z,7.87
2019-03-04T00:09:54.720Z,7.73
2019-03-04T00:12:24.418Z,7.72
2019-03-04T00:14:54.101Z,7.71
2019-03-04T00:17:23.721Z,7.82
2019-03-04T00:19:53.323Z,7.76
2019-03-04T00:22:22.915Z,7.76
2019-03-04T00:24:52.699Z,7.65
2019-03-04T00:27:22.358Z,7.92
2019-03-04T00:29:51.956Z,7.87
2019-03-04T00:32:21.639Z,7.68
2019-03-04T00:34:51.278Z,7.76
2019-03-04T00:37:20.909Z,7.77
2019-03-04T00:39:50.484Z,7.82
2019-03-04T00:42:20.174Z,7.66
2019-03-04T00:44:49.876Z,7.86
2019-03-04T00:47:20.590Z,7.66
2019-03-04T00:49:50.266Z,7.55
2019-03-04T00:52:19.878Z,7.55
2019-03-04T00:54:49.451Z,7.68
2019-03-04T00:57:19.048Z,7.74
2019-03-04T00:59:48.674Z,7.54
2019-03-04T01:02:18.333Z,7.36
2019-03-04T01:04:47.960Z,7.39
2019-03-04T01:07:17.653Z,7.38
2019-03-04T01:09:47.245Z,7.10
2019-03-04T01:12:16.889Z,7.13
2019-03-04T01:14:46.617Z,7.12
2019-03-04T01:17:16.218Z,6.99
2019-03-04T01:19:45.806Z,7.10
2019-03-04T01:22:15.454Z,7.17
2019-03-04T01:24:45.103Z,6.81
2019-03-04T01:27:14.752Z,6.72
2019-03-04T01:29:44.322Z,6.90
2019-03-04T01:32:13.916Z,6.62
2019-03-04T01:34:43.531Z,6.71
2019-03-04T01:37:13.113Z,6.79
2019-03-04T01:39:42.731Z,7.01
2019-03-04T01:42:12.347Z,6.69
2019-03-04T01:44:41.943Z,6.36
2019-03-04T01:47:11.535Z,6.50
2019-03-04T01:49:41.124Z,6.22
2019-03-04T01:52:10.790Z,6.30
2019-03-04T01:54:40.381Z,6.24
2019-03-04T01:57:09.968Z,6.30
2019-03-04T01:59:39.567Z,6.03
2019-03-04T02:02:09.170Z,6.09
2019-03-04T02:04:38.838Z,6.03
2019-03-04T02:07:08.440Z,6.19
2019-03-04T02:09:38.061Z,6.44
2019-03-04T02:12:07.679Z,6.31
2019-03-04T02:14:37.271Z,6.37
2019-03-04T02:17:06.920Z,6.41
2019-03-04T02:19:36.522Z,6.41
2019-03-04T02:22:06.104Z,6.33
2019-03-04T02:24:35.722Z,6.41
2019-03-04T02:27:05.471Z,6.32
2019-03-04T02:29:35.116Z,6.38
2019-03-04T02:32:04.738Z,6.38
2019-03-04T02:34:34.352Z,6.48
2019-03-04T02:37:03.965Z,6.41
2019-03-04T02:39:33.604Z,6.43
2019-03-04T02:42:03.224Z,6.45
2019-03-04T02:44:32.804Z,6.66
2019-03-04T02:47:02.424Z,6.73
2019-03-04T02:49:32.026Z,6.69
2019-03-04T02:52:01.620Z,6.67
2019-03-04T02:54:31.274Z,6.64
2019-03-04T02:57:00.854Z,6.50
2019-03-04T02:59:30.456Z,6.43
2019-03-04T03:02:00.065Z,6.28
2019-03-04T03:04:29.628Z,6.24
2019-03-04T03:06:59.287Z,6.25
2019-03-04T03:09:28.987Z,6.23
2019-03-04T03:11:58.592Z,6.08
2019-03-04T03:14:28.286Z,6.01
2019-03-04T03:16:57.936Z,6.11
2019-03-04T03:19:27.591Z,6.13
2019-03-04T03:21:57.203Z,6.11
2019-03-04T03:24:26.794Z,6.23
2019-03-04T03:26:56.409Z,5.98
2019-03-04T03:29:26.000Z,5.94
2019-03-04T03:31:55.672Z,5.76
2019-03-04T03:34:25.403Z,5.95
2019-03-04T03:36:55.002Z,5.94
2019-03-04T03:39:24.648Z,5.89
2019-03-04T03:41:54.249Z,6.02
2019-03-04T03:44:23.980Z,5.96
2019-03-04T03:46:53.681Z,5.74
2019-03-04T03:49:23.254Z,5.68
2019-03-04T03:51:52.920Z,5.77
2019-03-04T03:54:22.518Z,5.73
2019-03-04T03:56:52.155Z,5.63
2019-03-04T03:59:21.802Z,5.57
2019-03-04T04:01:51.424Z,5.54
2019-03-04T04:04:21.093Z,5.42
2019-03-04T04:06:50.680Z,5.44
2019-03-04T04:09:20.293Z,5.32
2019-03-04T04:11:49.928Z,5.11
2019-03-04T04:14:19.531Z,5.06
2019-03-04T04:16:49.156Z,5.12
2019-03-04T04:19:18.746Z,4.87
2019-03-04T04:21:48.621Z,4.71
2019-03-04T04:24:18.205Z,4.60
2019-03-04T04:26:47.784Z,4.57
2019-03-04T04:29:17.436Z,4.58
2019-03-04T04:31:47.039Z,4.39
2019-03-04T04:34:16.680Z,4.34
2019-03-04T04:36:46.282Z,4.46
2019-03-04T04:39:15.888Z,4.29
2019-03-04T04:41:45.533Z,4.20
2019-03-04T04:44:15.141Z,4.26
2019-03-04T04:47:03.057Z,4.24
2019-03-04T04:49:34.037Z,4.34
2019-03-04T04:52:03.654Z,4.50
2019-03-04T04:54:33.222Z,4.48
2019-03-04T04:57:02.891Z,4.62
2019-03-04T04:59:32.509Z,4.35
2019-03-04T05:02:02.157Z,4.59
2019-03-04T05:04:31.771Z,4.70
2019-03-04T05:07:01.367Z,4.59
2019-03-04T05:09:31.015Z,4.70
2019-03-04T05:12:00.599Z,4.88
2019-03-04T05:14:30.197Z,4.91
2019-03-04T05:16:59.962Z,4.98
2019-03-04T05:19:29.580Z,4.64
2019-03-04T05:21:59.212Z,4.64
2019-03-04T05:24:29.602Z,5.40
2019-03-04T05:26:59.303Z,5.47
2019-03-04T05:29:28.939Z,6.40
2019-03-04T05:31:58.594Z,6.64
2019-03-04T05:34:28.242Z,6.71
2019-03-04T05:36:57.867Z,5.85
2019-03-04T05:39:27.451Z,5.61
2019-03-04T05:41:57.139Z,5.90
2019-03-04T05:44:26.711Z,5.77
2019-03-04T05:46:56.337Z,5.64
2019-03-04T05:49:25.982Z,6.56
2019-03-04T05:51:55.604Z,7.16
2019-03-04T05:54:25.203Z,7.25
2019-03-04T05:56:54.794Z,7.29
2019-03-04T05:59:24.446Z,6.18
2019-03-04T06:02:04.687Z,6.81
2019-03-04T06:04:34.515Z,6.67
2019-03-04T06:07:10.837Z,6.91
2019-03-04T06:09:40.552Z,6.80
2019-03-04T06:12:10.329Z,6.98
2019-03-04T06:14:39.959Z,6.95
2019-03-04T06:17:09.677Z,6.50
2019-03-04T06:19:39.350Z,7.10
2019-03-04T06:22:09.033Z,6.93
2019-03-04T06:24:38.747Z,7.21
2019-03-04T06:27:08.511Z,7.65
2019-03-04T06:29:38.157Z,7.57
2019-03-04T06:32:07.940Z,6.84
2019-03-04T06:34:37.594Z,7.36
2019-03-04T06:37:07.346Z,8.04
2019-03-04T06:39:37.051Z,7.70
2019-03-04T06:42:06.725Z,7.96
2019-03-04T06:44:36.335Z,7.28
2019-03-04T06:47:05.968Z,6.48
2019-03-04T06:49:35.742Z,6.41
2019-03-04T06:52:05.676Z,6.15
2019-03-04T06:54:59.930Z,6.14
2019-03-04T06:57:33.367Z,6.15
2019-03-04T07:00:51.175Z,6.21
2019-03-04T07:03:29.353Z,6.47
2019-03-04T07:05:58.984Z,6.21
2019-03-04T07:08:59.617Z,6.26
2019-03-04T07:11:31.200Z,6.47
2019-03-04T07:14:03.487Z,6.81
2019-03-04T07:16:33.588Z,6.36
2019-03-04T07:19:17.116Z,6.56
2019-03-04T07:21:47.093Z,6.80
2019-03-04T07:24:18.196Z,7.04
2019-03-04T07:26:48.011Z,7.11
2019-03-04T07:29:19.408Z,7.60
2019-03-04T07:31:49.853Z,8.12
2019-03-04T07:34:21.944Z,8.14
2019-03-04T07:36:55.600Z,7.74
2019-03-04T07:39:53.713Z,8.17
2019-03-04T07:42:25.611Z,7.73
2019-03-04T07:44:55.510Z,7.86
2019-03-04T07:47:36.402Z,7.97
2019-03-04T07:50:16.470Z,7.98
2019-03-04T07:52:46.292Z,8.52
2019-03-04T07:55:16.332Z,8.66
2019-03-04T07:57:52.120Z,8.54
2019-03-04T08:00:21.722Z,8.53
2019-03-04T08:02:51.437Z,8.56
2019-03-04T08:05:29.969Z,9.21
2019-03-04T08:08:11.550Z,9.27
2019-03-04T08:10:55.670Z,9.61
2019-03-04T08:13:42.526Z,8.99
2019-03-04T08:16:51.349Z,9.43
2019-03-04T08:19:21.082Z,9.60
2019-03-04T08:21:50.683Z,9.46
2019-03-04T08:24:20.362Z,9.69
2019-03-04T08:26:50.139Z,10.25
2019-03-04T08:29:19.867Z,9.68
2019-03-04T08:31:52.538Z,9.36
2019-03-04T08:34:30.790Z,9.74
2019-03-04T08:37:42.940Z,9.66
2019-03-04T08:40:13.673Z,9.71
2019-03-04T08:42:49.597Z,9.58
2019-03-04T08:45:21.695Z,10.28
2019-03-04T08:47:51.418Z,9.94
2019-03-04T08:50:21.071Z,10.26
2019-03-04T08:52:50.624Z,10.58
2019-03-04T08:55:21.783Z,10.52
2019-03-04T08:57:51.792Z,10.73
2019-03-04T09:00:24.356Z,10.32
2019-03-04T09:02:54.123Z,10.90
2019-03-04T09:05:23.851Z,10.97
2019-03-04T09:07:53.748Z,11.50
2019-03-04T09:10:25.461Z,11.91
2019-03-04T09:12:55.142Z,11.89
2019-03-04T09:15:25.515Z,11.37
2019-03-04T09:17:55.225Z,12.30
2019-03-04T09:20:25.411Z,12.03
2019-03-04T09:22:55.437Z,12.96
2019-03-04T09:25:45.582Z,13.18
2019-03-04T09:28:15.230Z,12.58
2019-03-04T09:30:44.980Z,11.80
2019-03-04T09:33:14.668Z,12.29
2019-03-04T09:35:44.385Z,12.41
2019-03-04T09:38:14.061Z,12.63
2019-03-04T09:40:43.859Z,12.39
2019-03-04T09:43:13.547Z,12.54
2019-03-04T09:45:43.308Z,12.57
2019-03-04T09:48:13.487Z,12.80
2019-03-04T09:50:43.125Z,12.98
2019-03-04T09:53:13.002Z,13.24
2019-03-04T09:55:42.688Z,13.31
2019-03-04T09:58:12.338Z,13.21
2019-03-04T10:00:55.305Z,13.76
2019-03-04T10:03:59.119Z,14.18
2019-03-04T10:06:44.560Z,13.88
2019-03-04T10:09:36.764Z,14.41
2019-03-04T10:12:39.037Z,15.02
2019-03-04T10:15:52.742Z,14.87
2019-03-04T10:18:44.311Z,14.70
2019-03-04T10:21:53.620Z,15.29
2019-03-04T10:24:59.493Z,15.65
2019-03-04T10:27:50.480Z,14.61
2019-03-04T10:30:36.709Z,14.65
2019-03-04T10:33:46.407Z,15.02
2019-03-04T10:36:52.479Z,15.01
2019-03-04T10:40:01.001Z,15.14
2019-03-04T10:43:29.572Z,14.58
2019-03-04T10:46:15.105Z,15.46
2019-03-04T10:48:44.762Z,15.65
2019-03-04T10:51:14.495Z,15.01
2019-03-04T10:53:44.101Z,15.39
2019-03-04T10:56:13.722Z,15.75
2019-03-04T10:58:43.342Z,16.01
2019-03-04T11:01:13.176Z,15.83
2019-03-04T11:03:42.835Z,16.07
2019-03-04T11:06:12.507Z,15.97
2019-03-04T11:08:42.128Z,16.08
2019-03-04T11:11:11.885Z,16.29
2019-03-04T11:13:41.487Z,17.10
2019-03-04T11:16:11.150Z,17.18
2019-03-04T11:18:40.754Z,17.48
2019-03-04T11:21:10.519Z,16.83
2019-03-04T11:23:40.143Z,17.20
2019-03-04T11:26:09.814Z,17.24
2019-03-04T11:28:39.609Z,17.46
2019-03-04T11:31:09.379Z,16.96
2019-03-04T11:33:39.063Z,17.18
2019-03-04T11:36:08.700Z,16.95
2019-03-04T11:38:44.033Z,17.33
2019-03-04T11:41:16.930Z,17.38
2019-03-04T11:43:46.783Z,17.42
2019-03-04T11:46:18.413Z,17.43
2019-03-04T11:48:48.096Z,17.63
2019-03-04T11:51:17.873Z,17.91
2019-03-04T11:53:47.584Z,17.91
2019-03-04T11:56:17.336Z,17.82
2019-03-04T11:58:46.983Z,18.11
2019-03-04T12:01:35.493Z,18.11
2019-03-04T12:04:05.318Z,17.93
2019-03-04T12:06:34.973Z,18.29
2019-03-04T12:09:07.535Z,17.86
2019-03-04T12:11:38.458Z,18.02
2019-03-04T12:14:08.211Z,17.94
2019-03-04T12:16:37.863Z,17.49
2019-03-04T12:19:07.511Z,17.47
2019-03-04T12:21:37.205Z,17.74
2019-03-04T12:24:06.993Z,17.32
2019-03-04T12:26:36.591Z,17.65
2019-03-04T12:29:06.240Z,17.69
2019-03-04T12:31:40.402Z,17.73
2019-03-04T12:34:11.763Z,18.19
2019-03-04T12:36:41.497Z,17.55
2019-03-04T12:39:11.764Z,18.37
2019-03-04T12:41:41.446Z,19.08
2019-03-04T12:44:11.135Z,18.71
2019-03-04T12:46:40.823Z,18.49
2019-03-04T12:49:10.453Z,18.82
2019-03-04T12:51:40.204Z,18.30
2019-03-04T12:54:09.944Z,18.39
2019-03-04T12:56:39.568Z,19.45
2019-03-04T12:59:09.212Z,18.89
2019-03-04T13:01:38.871Z,19.06
2019-03-04T13:04:08.491Z,19.08
2019-03-04T13:06:38.106Z,19.05
2019-03-04T13:09:14.493Z,18.95
2019-03-04T13:11:39.191Z,19.49
2019-03-04T13:14:08.934Z,19.17
2019-03-04T13:16:38.529Z,18.76
2019-03-04T13:19:08.185Z,19.24
2019-03-04T13:21:37.794Z,19.11
2019-03-04T13:24:07.899Z,18.84
2019-03-04T13:26:37.501Z,19.45
2019-03-04T13:29:07.336Z,19.20
2019-03-04T13:31:36.945Z,18.79
2019-03-04T13:34:06.556Z,19.60
2019-03-04T13:36:36.188Z,19.83
2019-03-04T13:39:07.813Z,19.57
2019-03-04T13:41:38.036Z,19.49
2019-03-04T13:44:07.657Z,19.92
2019-03-04T13:46:37.366Z,19.80
2019-03-04T13:49:06.993Z,19.94
2019-03-04T13:51:36.584Z,19.82
2019-03-04T13:54:06.375Z,19.53
2019-03-04T13:56:35.997Z,19.55
2019-03-04T13:59:05.591Z,19.12
2019-03-04T14:01:35.206Z,19.32
2019-03-04T14:04:04.912Z,19.18
2019-03-04T14:06:34.585Z,18.81
2019-03-04T14:09:05.956Z,18.76
2019-03-04T14:11:35.686Z,19.05
2019-03-04T14:14:05.315Z,18.62
2019-03-04T14:16:34.952Z,18.64
2019-03-04T14:19:04.610Z,18.34
2019-03-04T14:21:34.296Z,17.67
2019-03-04T14:24:03.895Z,17.62
2019-03-04T14:26:33.480Z,17.50
2019-03-04T14:29:03.092Z,17.56
2019-03-04T14:31:32.729Z,17.48
2019-03-04T14:34:02.349Z,17.01
2019-03-04T14:36:33.447Z,17.14
2019-03-04T14:39:03.131Z,17.55
2019-03-04T14:41:32.820Z,17.69
2019-03-04T14:44:02.625Z,17.93
2019-03-04T14:46:32.369Z,17.51
2019-03-04T14:49:01.983Z,17.46
2019-03-04T14:51:31.710Z,17.74
2019-03-04T14:54:01.311Z,17.44
2019-03-04T14:56:30.919Z,16.89
2019-03-04T14:59:10.474Z,16.85
2019-03-04T15:01:31.830Z,16.53
2019-03-04T15:04:01.494Z,16.52
2019-03-04T15:06:31.160Z,16.25
2019-03-04T15:09:00.743Z,16.18
2019-03-04T15:11:30.407Z,16.09
2019-03-04T15:14:00.062Z,16.20
2019-03-04T15:16:29.648Z,15.89
2019-03-04T15:18:59.290Z,15.95
2019-03-04T15:21:28.894Z,15.77
2019-03-04T15:23:58.549Z,15.90
2019-03-04T15:26:28.225Z,15.99
2019-03-04T15:28:57.863Z,16.08
2019-03-04T15:31:27.443Z,16.27
2019-03-04T15:33:57.024Z,16.43
2019-03-04T15:36:26.624Z,16.49
2019-03-04T15:38:56.337Z,16.60
2019-03-04T15:41:25.923Z,16.48
2019-03-04T15:43:55.569Z,16.56
2019-03-04T15:46:25.462Z,16.52
2019-03-04T15:48:55.093Z,16.49
2019-03-04T15:51:24.694Z,16.15
2019-03-04T15:53:54.393Z,15.91
2019-03-04T15:56:24.105Z,16.21
2019-03-04T15:58:53.777Z,15.86
2019-03-04T16:01:23.580Z,15.73
2019-03-04T16:03:53.306Z,15.61
2019-03-04T16:06:23.069Z,15.48
2019-03-04T16:08:52.705Z,15.27
2019-03-04T16:11:22.690Z,15.05
2019-03-04T16:13:54.170Z,14.91
2019-03-04T16:16:23.687Z,14.89
2019-03-04T16:18:53.273Z,14.87
2019-03-04T16:21:23.063Z,14.77
2019-03-04T16:23:52.671Z,14.64
2019-03-04T16:26:22.391Z,14.71
2019-03-04T16:28:52.013Z,14.51
2019-03-04T16:31:21.694Z,14.29
2019-03-04T16:33:51.297Z,14.35
2019-03-04T16:36:21.024Z,14.21
2019-03-04T16:38:50.983Z,14.48
2019-03-04T16:41:20.607Z,14.50
2019-03-04T16:43:50.216Z,14.63
2019-03-04T16:46:19.938Z,14.76
2019-03-04T16:48:49.514Z,14.85
2019-03-04T16:51:19.164Z,14.88
2019-03-04T16:53:48.777Z,14.88
2019-03-04T16:56:18.386Z,14.68
2019-03-04T16:58:48.046Z,14.49
2019-03-04T17:01:18.218Z,14.45
2019-03-04T17:03:48.028Z,14.79
2019-03-04T17:06:17.747Z,15.07
2019-03-04T17:08:47.465Z,14.18
2019-03-04T17:11:17.160Z,14.65
2019-03-04T17:13:46.939Z,14.40
2019-03-04T17:16:16.531Z,14.41
2019-03-04T17:18:46.195Z,14.39
2019-03-04T17:21:15.947Z,14.46
2019-03-04T17:23:45.545Z,14.40
2019-03-04T17:26:15.244Z,14.38
2019-03-04T17:28:44.900Z,14.29
2019-03-04T17:31:14.557Z,14.27
2019-03-04T17:33:45.644Z,14.10
2019-03-04T17:36:15.395Z,14.12
2019-03-04T17:38:45.466Z,14.15
2019-03-04T17:41:15.122Z,14.20
2019-03-04T17:43:44.790Z,14.15
2019-03-04T17:46:14.420Z,14.07
2019-03-04T17:48:44.113Z,13.87
2019-03-04T17:51:13.724Z,13.85
2019-03-04T17:53:43.367Z,13.47
2019-03-04T17:56:13.018Z,13.50
2019-03-04T17:58:42.662Z,13.31
2019-03-04T18:01:12.429Z,13.26
2019-03-04T18:03:42.021Z,13.08
2019-03-04T18:06:11.893Z,12.97
2019-03-04T18:08:41.649Z,12.77
2019-03-04T18:11:11.408Z,12.84
2019-03-04T18:13:41.267Z,12.97
2019-03-04T18:16:10.870Z,12.76
2019-03-04T18:18:40.520Z,12.70
2019-03-04T18:21:10.283Z,12.58
2019-03-04T18:23:41.267Z,12.57
2019-03-04T18:26:17.646Z,12.57
2019-03-04T18:29:18.707Z,12.64
2019-03-04T18:32:21.120Z,12.77
2019-03-04T18:35:32.380Z,12.73
2019-03-04T18:39:04.657Z,12.89
2019-03-04T18:41:44.094Z,12.84
2019-03-04T18:45:06.815Z,12.85
2019-03-04T18:47:59.026Z,13.03
2019-03-04T18:50:28.658Z,13.14
2019-03-04T18:52:58.510Z,13.27
2019-03-04T18:55:28.122Z,13.25
2019-03-04T18:57:57.778Z,13.19
2019-03-04T19:00:27.983Z,13.14
2019-03-04T19:02:57.727Z,13.13
2019-03-04T19:05:27.381Z,12.99
2019-03-04T19:07:57.099Z,12.98
2019-03-04T19:10:26.735Z,12.91
2019-03-04T19:12:56.406Z,12.76
2019-03-04T19:15:26.042Z,12.47
2019-03-04T19:17:55.653Z,12.41
2019-03-04T19:20:25.273Z,12.58
2019-03-04T19:22:54.866Z,12.33
2019-03-04T19:25:24.529Z,12.25
2019-03-04T19:27:54.163Z,12.40
2019-03-04T19:30:23.760Z,12.29
2019-03-04T19:32:53.374Z,12.06
2019-03-04T19:35:23.088Z,11.87
2019-03-04T19:37:52.823Z,11.87
2019-03-04T19:40:22.426Z,11.88
2019-03-04T19:42:52.220Z,11.74
2019-03-04T19:45:21.880Z,11.75
2019-03-04T19:47:51.634Z,12.11
2019-03-04T19:50:21.276Z,12.11
2019-03-04T19:52:50.928Z,12.13
2019-03-04T19:55:20.552Z,12.02
2019-03-04T19:57:50.316Z,11.83
2019-03-04T20:00:20.840Z,11.70
2019-03-04T20:02:50.647Z,11.00
2019-03-04T20:05:21.483Z,11.77
2019-03-04T20:07:51.319Z,11.85
2019-03-04T20:10:21.205Z,11.72
2019-03-04T20:12:50.957Z,11.24
2019-03-04T20:15:22.488Z,11.38
2019-03-04T20:17:52.246Z,11.07
2019-03-04T20:20:21.997Z,11.25
2019-03-04T20:22:51.596Z,10.93
2019-03-04T20:25:21.678Z,10.64
2019-03-04T20:27:51.324Z,10.45
2019-03-04T20:30:21.183Z,10.37
2019-03-04T20:32:51.119Z,10.53
2019-03-04T20:35:21.220Z,10.62
2019-03-04T20:37:52.418Z,10.74
2019-03-04T20:40:22.196Z,10.79
2019-03-04T20:42:52.472Z,10.77
2019-03-04T20:45:23.354Z,10.82
2019-03-04T20:47:53.143Z,10.92
2019-03-04T20:50:22.992Z,11.07
2019-03-04T20:52:52.799Z,11.15
2019-03-04T20:55:22.983Z,11.26
2019-03-04T20:57:52.772Z,11.44
2019-03-04T21:00:29.103Z,11.28
2019-03-04T21:02:59.358Z,10.69
2019-03-04T21:05:29.521Z,10.59
2019-03-04T21:07:59.576Z,10.50
2019-03-04T21:10:29.519Z,10.51
2019-03-04T21:13:02.884Z,10.30
2019-03-04T21:15:32.783Z,10.47
2019-03-04T21:18:02.563Z,10.55
2019-03-04T21:20:32.297Z,10.60
2019-03-04T21:23:02.093Z,10.60
2019-03-04T21:25:37.229Z,10.64
2019-03-04T21:28:11.132Z,10.52
2019-03-04T21:31:34.084Z,10.62
2019-03-04T21:34:33.269Z,10.72
2019-03-04T21:37:11.761Z,10.66
2019-03-04T21:39:41.814Z,10.71
2019-03-04T21:42:29.011Z,10.74
2019-03-04T21:45:39.737Z,10.79
2019-03-04T21:48:22.858Z,10.75
2019-03-04T21:51:38.195Z,10.80
2019-03-04T21:54:07.470Z,10.75
2019-03-04T21:57:07.771Z,10.66
2019-03-04T21:59:37.588Z,10.56
2019-03-04T22:02:17.131Z,10.47
2019-03-04T22:04:47.031Z,10.48
2019-03-04T22:07:17.535Z,10.58
2019-03-04T22:09:47.561Z,10.66
2019-03-04T22:12:17.392Z,10.61
2019-03-04T22:14:47.225Z,10.70
2019-03-04T22:17:17.386Z,10.61
2019-03-04T22:19:47.183Z,10.51
2019-03-04T22:22:17.037Z,10.43
2019-03-04T22:24:46.739Z,10.14
2019-03-04T22:27:16.497Z,10.14
2019-03-04T22:29:46.245Z,10.02
2019-03-04T22:32:15.989Z,9.99
2019-03-04T22:34:45.760Z,9.73
2019-03-04T22:37:15.619Z,9.26
2019-03-04T22:39:45.286Z,9.07
2019-03-04T22:42:15.071Z,9.61
2019-03-04T22:44:44.843Z,9.51
2019-03-04T22:47:14.796Z,9.54
2019-03-04T22:49:44.778Z,9.56
2019-03-04T22:52:14.483Z,9.50
2019-03-04T22:54:44.204Z,9.59
2019-03-04T22:57:13.978Z,9.53
2019-03-04T22:59:43.723Z,9.61
2019-03-04T23:02:14.225Z,9.57
2019-03-04T23:05:05.676Z,9.52
2019-03-04T23:07:38.295Z,9.52
2019-03-04T23:10:47.773Z,9.54
2019-03-04T23:13:37.661Z,9.45
2019-03-04T23:16:08.846Z,9.42
2019-03-04T23:18:38.858Z,9.51
2019-03-04T23:21:08.914Z,9.50
2019-03-04T23:23:38.817Z,9.42
2019-03-04T23:26:08.779Z,9.41
2019-03-04T23:28:38.663Z,9.42
2019-03-04T23:31:08.496Z,9.41
2019-03-04T23:33:38.413Z,9.48
2019-03-04T23:36:08.259Z,9.59
2019-03-04T23:38:38.253Z,9.65
2019-03-04T23:41:08.325Z,9.80
2019-03-04T23:43:38.355Z,9.97
2019-03-04T23:46:08.184Z,10.00
2019-03-04T23:48:38.104Z,10.04
2019-03-04T23:51:07.897Z,10.11
2019-03-04T23:53:39.124Z,9.86
2019-03-04T23:56:09.030Z,9.92
2019-03-04T23:58:38.911Z,9.89
